sensor_id;sensor_type;location;lat;lon;timestamp;P1;durP1;ratioP1;P2;durP2;ratioP2
7941;SDS011;4016;50.758;7.150;2022-10-13T00:03:20;7.23;;;5.97;;
7941;SDS011;4016;50.758;7.150;2022-10-13T00:08:21;7.97;;;5.40;;
7941;SDS011;4016;50.758;7.150;2022-10-13T00:13:21;7.70;;;5.50;;
7941;SDS011;4016;50.758;7.150;2022-10-13T00:18:22;7.27;;;5.43;;
7941;SDS011;4016;50.758;7.150;2022-10-13T00:23:22;7.93;;;5.70;;
7941;SDS011;4016;50.758;7.150;2022-10-13T00:28:23;6.67;;;5.50;;
7941;SDS011;4016;50.758;7.150;2022-10-13T00:33:24;7.63;;;5.33;;
7941;SDS011;4016;50.758;7.150;2022-10-13T00:38:24;7.73;;;5.67;;
7941;SDS011;4016;50.758;7.150;2022-10-13T00:43:26;6.63;;;5.73;;
7941;SDS011;4016;50.758;7.150;2022-10-13T00:48:45;7.37;;;5.20;;
7941;SDS011;4016;50.758;7.150;2022-10-13T00:53:47;6.47;;;5.20;;
7941;SDS011;4016;50.758;7.150;2022-10-13T00:58:48;6.80;;;5.20;;
7941;SDS011;4016;50.758;7.150;2022-10-13T01:03:49;7.60;;;5.30;;
7941;SDS011;4016;50.758;7.150;2022-10-13T01:08:49;8.97;;;5.93;;
7941;SDS011;4016;50.758;7.150;2022-10-13T01:19:24;7.87;;;5.23;;
7941;SDS011;4016;50.758;7.150;2022-10-13T01:40:06;6.33;;;5.40;;
7941;SDS011;4016;50.758;7.150;2022-10-13T01:45:29;8.03;;;5.67;;
7941;SDS011;4016;50.758;7.150;2022-10-13T01:50:34;12.20;;;6.03;;
7941;SDS011;4016;50.758;7.150;2022-10-13T01:55:47;8.23;;;5.90;;
7941;SDS011;4016;50.758;7.150;2022-10-13T02:06:33;7.77;;;5.50;;
7941;SDS011;4016;50.758;7.150;2022-10-13T02:11:41;8.57;;;5.87;;
7941;SDS011;4016;50.758;7.150;2022-10-13T02:16:48;8.60;;;6.83;;
7941;SDS011;4016;50.758;7.150;2022-10-13T02:21:50;6.67;;;5.20;;
7941;SDS011;4016;50.758;7.150;2022-10-13T02:26:52;6.47;;;5.50;;
7941;SDS011;4016;50.758;7.150;2022-10-13T02:31:53;8.13;;;5.33;;
7941;SDS011;4016;50.758;7.150;2022-10-13T02:36:53;7.63;;;5.90;;
7941;SDS011;4016;50.758;7.150;2022-10-13T02:41:54;6.63;;;5.30;;
7941;SDS011;4016;50.758;7.150;2022-10-13T02:46:54;8.00;;;5.97;;
7941;SDS011;4016;50.758;7.150;2022-10-13T02:51:55;8.47;;;5.87;;
7941;SDS011;4016;50.758;7.150;2022-10-13T02:56:55;6.63;;;5.67;;
7941;SDS011;4016;50.758;7.150;2022-10-13T03:01:55;7.10;;;6.10;;
7941;SDS011;4016;50.758;7.150;2022-10-13T03:06:56;6.23;;;5.07;;
7941;SDS011;4016;50.758;7.150;2022-10-13T03:11:56;7.13;;;5.50;;
7941;SDS011;4016;50.758;7.150;2022-10-13T03:16:56;5.97;;;5.27;;
7941;SDS011;4016;50.758;7.150;2022-10-13T03:21:57;11.20;;;5.80;;
7941;SDS011;4016;50.758;7.150;2022-10-13T03:26:57;7.00;;;5.30;;
7941;SDS011;4016;50.758;7.150;2022-10-13T03:31:58;6.20;;;5.30;;
7941;SDS011;4016;50.758;7.150;2022-10-13T03:36:58;11.07;;;6.07;;
7941;SDS011;4016;50.758;7.150;2022-10-13T03:41:58;8.07;;;5.73;;
7941;SDS011;4016;50.758;7.150;2022-10-13T03:46:59;6.70;;;5.83;;
7941;SDS011;4016;50.758;7.150;2022-10-13T03:51:59;8.53;;;5.60;;
7941;SDS011;4016;50.758;7.150;2022-10-13T03:56:59;9.67;;;5.73;;
7941;SDS011;4016;50.758;7.150;2022-10-13T04:02:00;8.73;;;5.43;;
7941;SDS011;4016;50.758;7.150;2022-10-13T04:07:00;6.57;;;5.87;;
7941;SDS011;4016;50.758;7.150;2022-10-13T04:12:00;9.47;;;5.47;;
7941;SDS011;4016;50.758;7.150;2022-10-13T04:17:01;8.23;;;5.90;;
7941;SDS011;4016;50.758;7.150;2022-10-13T04:22:01;5.90;;;5.23;;
7941;SDS011;4016;50.758;7.150;2022-10-13T04:27:02;5.40;;;4.90;;
7941;SDS011;4016;50.758;7.150;2022-10-13T04:32:02;7.50;;;5.83;;
7941;SDS011;4016;50.758;7.150;2022-10-13T04:37:03;8.63;;;5.50;;
7941;SDS011;4016;50.758;7.150;2022-10-13T04:42:03;8.13;;;5.47;;
7941;SDS011;4016;50.758;7.150;2022-10-13T04:47:04;8.23;;;6.00;;
7941;SDS011;4016;50.758;7.150;2022-10-13T04:52:04;7.63;;;5.80;;
7941;SDS011;4016;50.758;7.150;2022-10-13T04:57:04;7.57;;;5.27;;
7941;SDS011;4016;50.758;7.150;2022-10-13T05:02:05;8.43;;;5.87;;
7941;SDS011;4016;50.758;7.150;2022-10-13T05:07:05;8.70;;;5.97;;
7941;SDS011;4016;50.758;7.150;2022-10-13T05:12:05;7.93;;;6.10;;
7941;SDS011;4016;50.758;7.150;2022-10-13T05:17:06;8.60;;;6.10;;
7941;SDS011;4016;50.758;7.150;2022-10-13T05:22:06;9.10;;;6.50;;
7941;SDS011;4016;50.758;7.150;2022-10-13T05:27:10;7.40;;;5.47;;
7941;SDS011;4016;50.758;7.150;2022-10-13T05:32:11;9.67;;;5.93;;
7941;SDS011;4016;50.758;7.150;2022-10-13T05:37:12;7.77;;;5.30;;
7941;SDS011;4016;50.758;7.150;2022-10-13T05:42:12;7.13;;;5.50;;
7941;SDS011;4016;50.758;7.150;2022-10-13T05:47:13;6.33;;;5.27;;
7941;SDS011;4016;50.758;7.150;2022-10-13T05:52:13;7.93;;;5.60;;
7941;SDS011;4016;50.758;7.150;2022-10-13T05:57:15;8.20;;;6.17;;
7941;SDS011;4016;50.758;7.150;2022-10-13T06:02:20;9.13;;;6.40;;
7941;SDS011;4016;50.758;7.150;2022-10-13T06:07:25;11.80;;;8.37;;
7941;SDS011;4016;50.758;7.150;2022-10-13T06:12:25;10.27;;;7.37;;
7941;SDS011;4016;50.758;7.150;2022-10-13T06:17:26;9.83;;;6.67;;
7941;SDS011;4016;50.758;7.150;2022-10-13T06:22:26;8.07;;;6.63;;
7941;SDS011;4016;50.758;7.150;2022-10-13T06:27:27;6.83;;;6.10;;
7941;SDS011;4016;50.758;7.150;2022-10-13T06:32:27;10.00;;;6.37;;
7941;SDS011;4016;50.758;7.150;2022-10-13T06:37:27;7.50;;;5.93;;
7941;SDS011;4016;50.758;7.150;2022-10-13T06:42:28;9.93;;;6.50;;
7941;SDS011;4016;50.758;7.150;2022-10-13T06:47:30;9.13;;;6.63;;
7941;SDS011;4016;50.758;7.150;2022-10-13T06:52:31;8.53;;;6.17;;
7941;SDS011;4016;50.758;7.150;2022-10-13T06:57:31;8.07;;;6.60;;
7941;SDS011;4016;50.758;7.150;2022-10-13T07:02:32;10.43;;;7.17;;
7941;SDS011;4016;50.758;7.150;2022-10-13T07:07:32;9.60;;;6.43;;
7941;SDS011;4016;50.758;7.150;2022-10-13T07:12:33;12.07;;;6.63;;
7941;SDS011;4016;50.758;7.150;2022-10-13T07:17:33;9.57;;;6.57;;
7941;SDS011;4016;50.758;7.150;2022-10-13T07:22:33;10.13;;;6.80;;
7941;SDS011;4016;50.758;7.150;2022-10-13T07:27:34;9.43;;;6.80;;
7941;SDS011;4016;50.758;7.150;2022-10-13T07:32:34;9.10;;;6.17;;
7941;SDS011;4016;50.758;7.150;2022-10-13T07:37:35;9.53;;;6.70;;
7941;SDS011;4016;50.758;7.150;2022-10-13T07:42:36;8.40;;;6.50;;
7941;SDS011;4016;50.758;7.150;2022-10-13T07:47:36;10.93;;;7.33;;
7941;SDS011;4016;50.758;7.150;2022-10-13T07:52:37;17.60;;;7.00;;
7941;SDS011;4016;50.758;7.150;2022-10-13T07:57:37;9.00;;;6.57;;
7941;SDS011;4016;50.758;7.150;2022-10-13T08:02:38;11.37;;;7.20;;
7941;SDS011;4016;50.758;7.150;2022-10-13T08:07:38;9.83;;;6.37;;
7941;SDS011;4016;50.758;7.150;2022-10-13T08:12:38;10.83;;;7.17;;
7941;SDS011;4016;50.758;7.150;2022-10-13T08:17:39;8.80;;;6.83;;
7941;SDS011;4016;50.758;7.150;2022-10-13T08:22:39;10.80;;;7.63;;
7941;SDS011;4016;50.758;7.150;2022-10-13T08:27:40;9.50;;;6.70;;
7941;SDS011;4016;50.758;7.150;2022-10-13T08:32:40;11.30;;;7.10;;
7941;SDS011;4016;50.758;7.150;2022-10-13T08:37:40;10.20;;;7.03;;
7941;SDS011;4016;50.758;7.150;2022-10-13T08:42:42;10.40;;;6.53;;
7941;SDS011;4016;50.758;7.150;2022-10-13T08:47:44;9.73;;;6.20;;
7941;SDS011;4016;50.758;7.150;2022-10-13T08:52:49;9.53;;;6.80;;
7941;SDS011;4016;50.758;7.150;2022-10-13T08:58:05;8.33;;;6.07;;
7941;SDS011;4016;50.758;7.150;2022-10-13T09:08:23;10.57;;;6.63;;
7941;SDS011;4016;50.758;7.150;2022-10-13T09:13:28;8.83;;;6.73;;
7941;SDS011;4016;50.758;7.150;2022-10-13T09:18:29;9.27;;;5.90;;
7941;SDS011;4016;50.758;7.150;2022-10-13T09:23:30;8.87;;;5.47;;
7941;SDS011;4016;50.758;7.150;2022-10-13T09:28:31;11.60;;;6.07;;
7941;SDS011;4016;50.758;7.150;2022-10-13T09:33:35;7.13;;;5.53;;
7941;SDS011;4016;50.758;7.150;2022-10-13T09:38:36;5.97;;;4.90;;
7941;SDS011;4016;50.758;7.150;2022-10-13T09:48:46;7.73;;;5.83;;
7941;SDS011;4016;50.758;7.150;2022-10-13T09:53:49;7.57;;;5.63;;
7941;SDS011;4016;50.758;7.150;2022-10-13T09:58:54;9.33;;;6.23;;
7941;SDS011;4016;50.758;7.150;2022-10-13T10:04:00;7.17;;;5.63;;
7941;SDS011;4016;50.758;7.150;2022-10-13T10:09:13;11.27;;;6.60;;
7941;SDS011;4016;50.758;7.150;2022-10-13T10:14:33;10.03;;;5.70;;
7941;SDS011;4016;50.758;7.150;2022-10-13T10:24:55;7.50;;;5.50;;
7941;SDS011;4016;50.758;7.150;2022-10-13T10:30:19;6.97;;;5.53;;
7941;SDS011;4016;50.758;7.150;2022-10-13T10:35:27;6.97;;;5.50;;
7941;SDS011;4016;50.758;7.150;2022-10-13T10:46:23;5.77;;;5.17;;
7941;SDS011;4016;50.758;7.150;2022-10-13T10:51:31;6.83;;;5.43;;
7941;SDS011;4016;50.758;7.150;2022-10-13T10:56:40;9.00;;;5.67;;
7941;SDS011;4016;50.758;7.150;2022-10-13T11:12:23;7.20;;;5.50;;
7941;SDS011;4016;50.758;7.150;2022-10-13T11:17:57;9.20;;;5.67;;
7941;SDS011;4016;50.758;7.150;2022-10-13T11:27:57;8.30;;;5.22;;
7941;SDS011;4016;50.758;7.150;2022-10-13T11:32:59;6.63;;;5.38;;
7941;SDS011;4016;50.758;7.150;2022-10-13T11:38:18;6.85;;;5.32;;
7941;SDS011;4016;50.758;7.150;2022-10-13T11:48:57;9.65;;;5.40;;
7941;SDS011;4016;50.758;7.150;2022-10-13T11:59:43;6.97;;;5.05;;
7941;SDS011;4016;50.758;7.150;2022-10-13T12:04:59;6.93;;;5.22;;
7941;SDS011;4016;50.758;7.150;2022-10-13T12:10:02;10.32;;;4.93;;
7941;SDS011;4016;50.758;7.150;2022-10-13T12:15:21;6.18;;;4.47;;
7941;SDS011;4016;50.758;7.150;2022-10-13T12:20:34;6.57;;;4.70;;
7941;SDS011;4016;50.758;7.150;2022-10-13T12:25:36;5.82;;;4.43;;
7941;SDS011;4016;50.758;7.150;2022-10-13T12:30:37;6.80;;;4.20;;
7941;SDS011;4016;50.758;7.150;2022-10-13T12:35:37;7.47;;;3.97;;
7941;SDS011;4016;50.758;7.150;2022-10-13T12:40:38;4.50;;;4.03;;
7941;SDS011;4016;50.758;7.150;2022-10-13T12:45:38;5.97;;;4.20;;
7941;SDS011;4016;50.758;7.150;2022-10-13T12:50:39;6.63;;;4.32;;
7941;SDS011;4016;50.758;7.150;2022-10-13T12:55:47;5.22;;;4.03;;
7941;SDS011;4016;50.758;7.150;2022-10-13T13:00:54;5.53;;;4.10;;
7941;SDS011;4016;50.758;7.150;2022-10-13T13:16:36;5.25;;;4.10;;
7941;SDS011;4016;50.758;7.150;2022-10-13T13:21:36;8.10;;;4.20;;
7941;SDS011;4016;50.758;7.150;2022-10-13T13:26:36;7.10;;;4.73;;
7941;SDS011;4016;50.758;7.150;2022-10-13T13:31:37;6.43;;;4.20;;
7941;SDS011;4016;50.758;7.150;2022-10-13T13:36:37;5.10;;;4.03;;
7941;SDS011;4016;50.758;7.150;2022-10-13T13:41:37;6.33;;;4.60;;
7941;SDS011;4016;50.758;7.150;2022-10-13T13:46:38;5.60;;;4.30;;
7941;SDS011;4016;50.758;7.150;2022-10-13T13:51:38;5.07;;;3.97;;
7941;SDS011;4016;50.758;7.150;2022-10-13T13:56:38;5.33;;;4.43;;
7941;SDS011;4016;50.758;7.150;2022-10-13T14:01:39;5.10;;;4.27;;
7941;SDS011;4016;50.758;7.150;2022-10-13T14:06:39;6.67;;;4.73;;
7941;SDS011;4016;50.758;7.150;2022-10-13T14:11:39;8.97;;;4.30;;
7941;SDS011;4016;50.758;7.150;2022-10-13T14:16:40;8.27;;;4.07;;
7941;SDS011;4016;50.758;7.150;2022-10-13T14:21:40;6.17;;;4.60;;
7941;SDS011;4016;50.758;7.150;2022-10-13T14:26:41;9.83;;;4.90;;
7941;SDS011;4016;50.758;7.150;2022-10-13T14:31:41;6.33;;;4.57;;
7941;SDS011;4016;50.758;7.150;2022-10-13T14:36:41;6.97;;;5.00;;
7941;SDS011;4016;50.758;7.150;2022-10-13T14:41:42;5.20;;;4.53;;
7941;SDS011;4016;50.758;7.150;2022-10-13T14:46:42;6.90;;;4.37;;
7941;SDS011;4016;50.758;7.150;2022-10-13T14:51:42;4.17;;;3.73;;
7941;SDS011;4016;50.758;7.150;2022-10-13T14:56:43;4.20;;;3.67;;
7941;SDS011;4016;50.758;7.150;2022-10-13T15:01:43;4.73;;;4.00;;
7941;SDS011;4016;50.758;7.150;2022-10-13T15:06:46;5.03;;;4.17;;
7941;SDS011;4016;50.758;7.150;2022-10-13T15:11:46;6.73;;;4.30;;
7941;SDS011;4016;50.758;7.150;2022-10-13T15:16:46;4.60;;;4.20;;
7941;SDS011;4016;50.758;7.150;2022-10-13T15:21:47;4.83;;;4.03;;
7941;SDS011;4016;50.758;7.150;2022-10-13T15:26:47;4.37;;;3.97;;
7941;SDS011;4016;50.758;7.150;2022-10-13T15:31:48;6.23;;;3.97;;
7941;SDS011;4016;50.758;7.150;2022-10-13T15:36:48;5.20;;;4.27;;
7941;SDS011;4016;50.758;7.150;2022-10-13T15:41:49;8.63;;;4.63;;
7941;SDS011;4016;50.758;7.150;2022-10-13T15:46:49;5.10;;;4.10;;
7941;SDS011;4016;50.758;7.150;2022-10-13T15:51:50;6.83;;;4.43;;
7941;SDS011;4016;50.758;7.150;2022-10-13T15:56:51;5.70;;;4.77;;
7941;SDS011;4016;50.758;7.150;2022-10-13T16:01:51;9.83;;;4.63;;
7941;SDS011;4016;50.758;7.150;2022-10-13T16:06:51;4.90;;;4.40;;
7941;SDS011;4016;50.758;7.150;2022-10-13T16:11:52;5.53;;;4.60;;
7941;SDS011;4016;50.758;7.150;2022-10-13T16:16:53;5.93;;;5.23;;
7941;SDS011;4016;50.758;7.150;2022-10-13T16:21:53;6.67;;;4.70;;
7941;SDS011;4016;50.758;7.150;2022-10-13T16:26:53;6.97;;;4.80;;
7941;SDS011;4016;50.758;7.150;2022-10-13T16:31:54;6.70;;;4.80;;
7941;SDS011;4016;50.758;7.150;2022-10-13T16:36:54;6.23;;;4.93;;
7941;SDS011;4016;50.758;7.150;2022-10-13T16:41:55;7.87;;;5.40;;
7941;SDS011;4016;50.758;7.150;2022-10-13T16:46:55;5.77;;;4.73;;
7941;SDS011;4016;50.758;7.150;2022-10-13T16:51:56;6.23;;;5.30;;
7941;SDS011;4016;50.758;7.150;2022-10-13T16:56:57;5.80;;;5.20;;
7941;SDS011;4016;50.758;7.150;2022-10-13T17:01:58;5.63;;;4.63;;
7941;SDS011;4016;50.758;7.150;2022-10-13T17:06:58;6.97;;;5.40;;
7941;SDS011;4016;50.758;7.150;2022-10-13T17:11:59;7.97;;;5.63;;
7941;SDS011;4016;50.758;7.150;2022-10-13T17:16:59;6.03;;;5.43;;
7941;SDS011;4016;50.758;7.150;2022-10-13T17:21:59;8.97;;;6.00;;
7941;SDS011;4016;50.758;7.150;2022-10-13T17:27:00;6.60;;;5.90;;
7941;SDS011;4016;50.758;7.150;2022-10-13T17:32:00;8.63;;;5.27;;
7941;SDS011;4016;50.758;7.150;2022-10-13T17:37:01;6.70;;;5.60;;
7941;SDS011;4016;50.758;7.150;2022-10-13T17:42:03;5.90;;;5.03;;
7941;SDS011;4016;50.758;7.150;2022-10-13T17:47:03;8.27;;;6.43;;
7941;SDS011;4016;50.758;7.150;2022-10-13T17:52:04;7.40;;;5.20;;
7941;SDS011;4016;50.758;7.150;2022-10-13T17:57:04;6.63;;;5.70;;
7941;SDS011;4016;50.758;7.150;2022-10-13T18:02:05;8.63;;;6.30;;
7941;SDS011;4016;50.758;7.150;2022-10-13T18:07:05;9.23;;;6.27;;
7941;SDS011;4016;50.758;7.150;2022-10-13T18:12:05;8.80;;;6.10;;
7941;SDS011;4016;50.758;7.150;2022-10-13T18:17:06;7.10;;;5.60;;
7941;SDS011;4016;50.758;7.150;2022-10-13T18:22:06;8.50;;;6.67;;
7941;SDS011;4016;50.758;7.150;2022-10-13T18:27:07;8.30;;;6.83;;
7941;SDS011;4016;50.758;7.150;2022-10-13T18:32:07;6.93;;;5.80;;
7941;SDS011;4016;50.758;7.150;2022-10-13T18:37:07;12.87;;;7.03;;
7941;SDS011;4016;50.758;7.150;2022-10-13T18:42:08;8.03;;;6.20;;
7941;SDS011;4016;50.758;7.150;2022-10-13T18:47:08;9.97;;;6.53;;
7941;SDS011;4016;50.758;7.150;2022-10-13T18:52:09;6.30;;;5.53;;
7941;SDS011;4016;50.758;7.150;2022-10-13T18:57:09;5.00;;;4.50;;
7941;SDS011;4016;50.758;7.150;2022-10-13T19:02:11;5.43;;;4.20;;
7941;SDS011;4016;50.758;7.150;2022-10-13T19:07:13;6.23;;;3.90;;
7941;SDS011;4016;50.758;7.150;2022-10-13T19:12:13;4.20;;;3.50;;
7941;SDS011;4016;50.758;7.150;2022-10-13T19:17:13;3.10;;;2.83;;
7941;SDS011;4016;50.758;7.150;2022-10-13T19:22:14;3.60;;;3.03;;
7941;SDS011;4016;50.758;7.150;2022-10-13T19:30:31;3.20;;;2.80;;
7941;SDS011;4016;50.758;7.150;2022-10-13T19:36:05;3.17;;;2.90;;
7941;SDS011;4016;50.758;7.150;2022-10-13T19:41:02;4.03;;;3.10;;
7941;SDS011;4016;50.758;7.150;2022-10-13T19:46:05;4.03;;;3.30;;
7941;SDS011;4016;50.758;7.150;2022-10-13T19:51:07;3.33;;;3.03;;
7941;SDS011;4016;50.758;7.150;2022-10-13T19:56:16;3.10;;;2.80;;
7941;SDS011;4016;50.758;7.150;2022-10-13T20:01:18;3.47;;;2.80;;
7941;SDS011;4016;50.758;7.150;2022-10-13T20:06:19;3.43;;;3.13;;
7941;SDS011;4016;50.758;7.150;2022-10-13T20:11:20;4.63;;;3.07;;
7941;SDS011;4016;50.758;7.150;2022-10-13T20:16:22;3.60;;;3.30;;
7941;SDS011;4016;50.758;7.150;2022-10-13T20:21:24;3.77;;;3.20;;
7941;SDS011;4016;50.758;7.150;2022-10-13T20:26:25;3.83;;;3.37;;
7941;SDS011;4016;50.758;7.150;2022-10-13T20:31:26;3.63;;;3.20;;
7941;SDS011;4016;50.758;7.150;2022-10-13T20:36:26;5.20;;;3.43;;
7941;SDS011;4016;50.758;7.150;2022-10-13T20:41:30;4.43;;;3.50;;
7941;SDS011;4016;50.758;7.150;2022-10-13T20:46:31;4.77;;;3.67;;
7941;SDS011;4016;50.758;7.150;2022-10-13T20:51:31;4.00;;;3.60;;
7941;SDS011;4016;50.758;7.150;2022-10-13T20:56:31;4.00;;;3.10;;
7941;SDS011;4016;50.758;7.150;2022-10-13T21:01:32;4.60;;;3.80;;
7941;SDS011;4016;50.758;7.150;2022-10-13T21:06:33;4.40;;;3.50;;
7941;SDS011;4016;50.758;7.150;2022-10-13T21:11:35;3.87;;;3.43;;
7941;SDS011;4016;50.758;7.150;2022-10-13T21:16:35;3.43;;;3.13;;
7941;SDS011;4016;50.758;7.150;2022-10-13T21:21:36;3.87;;;3.10;;
7941;SDS011;4016;50.758;7.150;2022-10-13T21:26:37;4.00;;;3.60;;
7941;SDS011;4016;50.758;7.150;2022-10-13T21:31:38;7.07;;;3.77;;
7941;SDS011;4016;50.758;7.150;2022-10-13T21:36:39;4.00;;;3.13;;
7941;SDS011;4016;50.758;7.150;2022-10-13T21:41:43;4.17;;;3.70;;
7941;SDS011;4016;50.758;7.150;2022-10-13T21:46:43;5.53;;;3.80;;
7941;SDS011;4016;50.758;7.150;2022-10-13T21:51:43;5.00;;;3.80;;
7941;SDS011;4016;50.758;7.150;2022-10-13T21:56:44;5.23;;;3.80;;
7941;SDS011;4016;50.758;7.150;2022-10-13T22:01:44;3.70;;;3.40;;
7941;SDS011;4016;50.758;7.150;2022-10-13T22:06:45;3.30;;;3.00;;
7941;SDS011;4016;50.758;7.150;2022-10-13T22:11:45;4.60;;;3.30;;
7941;SDS011;4016;50.758;7.150;2022-10-13T22:16:47;5.07;;;3.80;;
7941;SDS011;4016;50.758;7.150;2022-10-13T22:21:49;4.20;;;3.40;;
7941;SDS011;4016;50.758;7.150;2022-10-13T22:26:50;3.97;;;3.57;;
7941;SDS011;4016;50.758;7.150;2022-10-13T22:31:53;4.17;;;3.20;;
7941;SDS011;4016;50.758;7.150;2022-10-13T22:36:55;5.63;;;3.87;;
7941;SDS011;4016;50.758;7.150;2022-10-13T22:41:55;4.23;;;3.60;;
7941;SDS011;4016;50.758;7.150;2022-10-13T22:46:55;5.20;;;4.10;;
7941;SDS011;4016;50.758;7.150;2022-10-13T22:51:56;7.47;;;4.03;;
7941;SDS011;4016;50.758;7.150;2022-10-13T22:56:56;4.23;;;3.60;;
7941;SDS011;4016;50.758;7.150;2022-10-13T23:01:56;7.33;;;3.90;;
7941;SDS011;4016;50.758;7.150;2022-10-13T23:06:56;4.13;;;3.70;;
7941;SDS011;4016;50.758;7.150;2022-10-13T23:11:57;4.70;;;4.20;;
7941;SDS011;4016;50.758;7.150;2022-10-13T23:16:57;5.27;;;4.17;;
7941;SDS011;4016;50.758;7.150;2022-10-13T23:21:57;5.60;;;4.40;;
7941;SDS011;4016;50.758;7.150;2022-10-13T23:26:58;4.50;;;4.00;;
7941;SDS011;4016;50.758;7.150;2022-10-13T23:32:00;6.07;;;4.27;;
7941;SDS011;4016;50.758;7.150;2022-10-13T23:37:00;5.20;;;3.83;;
7941;SDS011;4016;50.758;7.150;2022-10-13T23:42:00;5.70;;;4.87;;
7941;SDS011;4016;50.758;7.150;2022-10-13T23:47:01;4.67;;;3.73;;
7941;SDS011;4016;50.758;7.150;2022-10-13T23:52:01;6.33;;;4.30;;
7941;SDS011;4016;50.758;7.150;2022-10-13T23:57:01;5.70;;;4.43;;
